Time;durP1;ratioP1;P1;durP2;ratioP2;P2;SDS_P1;SDS_P2;PMS_P1;PMS_P2;Temp;Humidity;BMP_temperature;BMP_pressure;BME280_temperature;BME280_humidity;BME280_pressure;Samples;Min_cycle;Max_cycle;Signal;HPM_P1;HPM_P2
2022/08/21 00:00:10;;;;;;;3.85;2.40;;;16.60;99.90;;;;;;5115119;28;20286;-86
2022/08/21 00:02:37;;;;;;;2.83;2.25;;;16.60;99.90;;;;;;5110508;28;20207;-86
2022/08/21 00:05:05;;;;;;;2.45;2.20;;;16.60;99.90;;;;;;5113254;28;20286;-86
2022/08/21 00:07:32;;;;;;;3.08;2.17;;;16.60;99.90;;;;;;5108791;28;20236;-86
2022/08/21 00:10:00;;;;;;;3.25;2.10;;;16.50;99.90;;;;;;5114816;28;20541;-86
2022/08/21 00:12:28;;;;;;;5.90;2.28;;;16.50;99.90;;;;;;5106852;28;20200;-86
2022/08/21 00:14:55;;;;;;;3.20;2.33;;;16.40;99.90;;;;;;5114949;28;20223;-86
2022/08/21 00:17:22;;;;;;;3.15;2.40;;;16.40;99.90;;;;;;5113677;28;20236;-86
2022/08/21 00:19:54;;;;;;;3.50;2.30;;;16.40;99.90;;;;;;5116732;28;20581;-86
2022/08/21 00:22:21;;;;;;;3.35;2.40;;;16.30;99.90;;;;;;5113211;28;20196;-86
2022/08/21 00:24:51;;;;;;;2.78;2.58;;;16.30;99.90;;;;;;5116362;28;20311;-86
2022/08/21 00:27:20;;;;;;;3.95;2.40;;;16.20;99.90;;;;;;5111809;28;20624;-86
2022/08/21 00:29:47;;;;;;;2.92;2.30;;;16.20;99.90;;;;;;5115945;28;20789;-86
2022/08/21 00:32:13;;;;;;;2.80;2.60;;;16.20;99.90;;;;;;5113783;28;20204;-86
2022/08/21 00:34:40;;;;;;;2.97;2.60;;;16.10;99.90;;;;;;5113404;28;20228;-86
2022/08/21 00:37:07;;;;;;;4.75;2.60;;;16.10;99.90;;;;;;5113324;28;20285;-86
2022/08/21 00:39:34;;;;;;;4.25;2.70;;;16.00;99.90;;;;;;5114854;27;20199;-86
2022/08/21 00:42:01;;;;;;;2.50;2.30;;;16.00;99.90;;;;;;5114813;28;20208;-86
2022/08/21 00:44:30;;;;;;;2.28;2.08;;;16.00;99.90;;;;;;5105829;28;20212;-86
2022/08/21 00:46:58;;;;;;;3.70;2.08;;;16.10;99.90;;;;;;5105579;28;20203;-86
2022/08/21 00:49:25;;;;;;;2.60;2.40;;;16.10;99.90;;;;;;5114826;28;20214;-86
2022/08/21 00:51:56;;;;;;;2.33;2.10;;;16.10;99.90;;;;;;5112866;28;20211;-86
2022/08/21 00:54:26;;;;;;;3.65;2.17;;;16.10;99.90;;;;;;5111564;27;20704;-86
2022/08/21 00:57:01;;;;;;;2.60;2.20;;;16.10;99.90;;;;;;5113894;28;20227;-86
2022/08/21 00:59:35;;;;;;;2.20;2.00;;;16.00;99.90;;;;;;5112733;28;20206;-86
2022/08/21 01:02:03;;;;;;;2.42;1.90;;;16.00;99.90;;;;;;5112719;28;20196;-86
2022/08/21 01:04:30;;;;;;;2.30;2.10;;;16.00;99.90;;;;;;5112437;28;20204;-86
2022/08/21 01:06:57;;;;;;;3.35;2.10;;;15.90;99.90;;;;;;5112680;27;20225;-86
2022/08/21 01:09:24;;;;;;;2.38;2.20;;;15.90;99.90;;;;;;5113008;28;20200;-86
2022/08/21 01:11:51;;;;;;;3.10;2.20;;;15.90;99.90;;;;;;5114008;28;20206;-86
2022/08/21 01:14:19;;;;;;;2.42;2.05;;;15.80;99.90;;;;;;5113720;28;20261;-86
2022/08/21 01:16:52;;;;;;;3.75;2.33;;;15.80;99.90;;;;;;5112194;28;20200;-86
2022/08/21 01:19:22;;;;;;;3.15;2.03;;;15.80;99.90;;;;;;5112289;28;20656;-86
2022/08/21 01:21:50;;;;;;;2.00;1.90;;;15.80;99.90;;;;;;5113585;28;20554;-86
2022/08/21 01:24:17;;;;;;;4.47;2.08;;;15.80;99.90;;;;;;5111855;28;20227;-86
2022/08/21 01:26:44;;;;;;;2.70;2.20;;;15.70;99.90;;;;;;5111586;28;20207;-86
2022/08/21 01:29:17;;;;;;;3.10;2.28;;;15.70;99.90;;;;;;5114015;28;20713;-86
2022/08/21 01:31:44;;;;;;;2.20;2.05;;;15.70;99.90;;;;;;5109987;28;20200;-86
2022/08/21 01:34:13;;;;;;;2.00;1.90;;;15.60;99.90;;;;;;5114001;28;20644;-86
2022/08/21 01:36:40;;;;;;;3.63;2.22;;;15.60;99.90;;;;;;5100371;28;20214;-86
2022/08/21 01:39:09;;;;;;;2.90;2.00;;;15.60;99.90;;;;;;5106273;28;20196;-86
2022/08/21 01:41:35;;;;;;;2.45;2.20;;;15.60;99.90;;;;;;5102173;28;20215;-86
2022/08/21 01:44:03;;;;;;;3.72;2.10;;;15.60;99.90;;;;;;5108060;28;20216;-85
2022/08/21 01:46:30;;;;;;;2.10;2.00;;;15.60;99.90;;;;;;5107764;28;20209;-85
2022/08/21 01:48:57;;;;;;;2.92;2.40;;;15.50;99.90;;;;;;5111637;28;20294;-85
2022/08/21 01:51:24;;;;;;;2.00;1.90;;;15.50;99.90;;;;;;5112631;28;20212;-86
2022/08/21 01:53:51;;;;;;;4.75;1.98;;;15.50;99.90;;;;;;5094191;28;20220;-86
2022/08/21 01:56:19;;;;;;;3.20;1.90;;;15.50;99.90;;;;;;5106886;28;20204;-86
2022/08/21 01:58:47;;;;;;;2.22;2.10;;;15.50;99.90;;;;;;5109419;28;20221;-86
2022/08/21 02:01:14;;;;;;;2.03;1.83;;;15.50;99.90;;;;;;5114184;28;20223;-86
2022/08/21 02:03:42;;;;;;;2.10;2.00;;;15.50;99.90;;;;;;5112771;28;20205;-86
2022/08/21 02:06:14;;;;;;;4.63;1.88;;;15.40;99.90;;;;;;5113415;28;20212;-86
2022/08/21 02:08:41;;;;;;;3.05;1.83;;;15.40;99.90;;;;;;5107941;28;20202;-86
2022/08/21 02:11:08;;;;;;;2.15;1.98;;;15.40;99.90;;;;;;5103270;28;20197;-86
2022/08/21 02:13:36;;;;;;;2.45;2.15;;;15.40;99.90;;;;;;5106558;28;20242;-86
2022/08/21 02:16:04;;;;;;;2.10;1.90;;;15.40;99.90;;;;;;5105789;28;20206;-87
2022/08/21 02:18:31;;;;;;;2.30;2.10;;;15.40;99.90;;;;;;5092776;28;20283;-86
2022/08/21 02:20:58;;;;;;;7.32;2.35;;;15.40;99.90;;;;;;5107303;28;20197;-86
2022/08/21 02:23:25;;;;;;;4.82;2.10;;;15.40;99.90;;;;;;5104761;28;20207;-86
2022/08/21 02:25:52;;;;;;;4.00;1.80;;;15.30;99.90;;;;;;5099322;28;20284;-87
2022/08/21 02:28:19;;;;;;;3.28;1.83;;;15.30;99.90;;;;;;5113349;28;20195;-87
2022/08/21 02:30:49;;;;;;;2.30;2.10;;;15.30;99.90;;;;;;5110317;28;20286;-87
2022/08/21 02:33:16;;;;;;;2.08;1.88;;;15.30;99.90;;;;;;5101362;28;20606;-87
2022/08/21 02:35:45;;;;;;;3.17;1.80;;;15.20;99.90;;;;;;5102475;28;20210;-87
2022/08/21 02:38:14;;;;;;;2.70;1.80;;;15.20;99.90;;;;;;5105272;28;20564;-87
2022/08/21 02:40:43;;;;;;;1.80;1.70;;;15.20;99.90;;;;;;5107702;28;20214;-87
2022/08/21 02:43:10;;;;;;;2.17;1.98;;;15.20;99.90;;;;;;5116776;28;20199;-87
2022/08/21 02:45:38;;;;;;;2.10;1.90;;;15.20;99.90;;;;;;5105713;28;20222;-87
2022/08/21 02:48:09;;;;;;;2.20;1.80;;;15.20;99.90;;;;;;5110714;28;20322;-87
2022/08/21 02:50:38;;;;;;;2.42;2.00;;;15.10;99.90;;;;;;5105907;28;20207;-87
2022/08/21 02:53:07;;;;;;;2.22;1.90;;;15.10;99.90;;;;;;5107017;28;20210;-87
2022/08/21 02:55:35;;;;;;;2.10;1.92;;;15.10;99.90;;;;;;5114553;28;20222;-87
2022/08/21 02:58:04;;;;;;;1.88;1.75;;;15.10;99.90;;;;;;5116397;28;20655;-87
2022/08/21 03:00:32;;;;;;;3.40;2.00;;;15.10;99.90;;;;;;5107156;28;20198;-87
2022/08/21 03:03:00;;;;;;;2.72;1.80;;;15.10;99.90;;;;;;5115465;28;20211;-87
2022/08/21 03:05:31;;;;;;;2.75;2.17;;;15.10;99.90;;;;;;5109449;28;20196;-86
2022/08/21 03:07:59;;;;;;;3.47;1.98;;;15.10;99.90;;;;;;5106394;28;20200;-87
2022/08/21 03:10:26;;;;;;;2.20;2.10;;;15.10;99.90;;;;;;5108847;28;20677;-87
2022/08/21 03:12:54;;;;;;;2.78;2.50;;;15.00;99.90;;;;;;5115851;28;20200;-87
2022/08/21 03:15:23;;;;;;;3.22;2.15;;;15.00;99.90;;;;;;5116136;28;20215;-87
2022/08/21 03:17:51;;;;;;;2.90;2.40;;;15.00;99.90;;;;;;5115856;28;20203;-87
2022/08/21 03:20:23;;;;;;;2.38;2.03;;;15.00;99.90;;;;;;5115946;28;20196;-87
2022/08/21 03:22:52;;;;;;;6.03;2.10;;;15.00;99.90;;;;;;5115928;28;20207;-87
2022/08/21 03:25:20;;;;;;;2.80;2.00;;;14.90;99.90;;;;;;5115751;28;20204;-87
2022/08/21 03:27:48;;;;;;;2.97;2.10;;;14.90;99.90;;;;;;5106117;28;20303;-87
2022/08/21 03:30:21;;;;;;;2.33;2.13;;;14.90;99.90;;;;;;5114216;28;20208;-87
2022/08/21 03:32:48;;;;;;;2.53;2.30;;;14.90;99.90;;;;;;5108062;28;20279;-87
2022/08/21 03:35:15;;;;;;;3.10;2.80;;;14.80;99.90;;;;;;5111821;28;20229;-87
2022/08/21 03:37:42;;;;;;;2.30;2.10;;;14.80;99.90;;;;;;5112487;28;20210;-87
2022/08/21 03:40:13;;;;;;;6.93;2.92;;;14.90;99.90;;;;;;5112211;28;20205;-87
2022/08/21 03:42:40;;;;;;;3.50;2.50;;;14.80;99.90;;;;;;5113368;28;20204;-87
2022/08/21 03:45:08;;;;;;;3.65;2.40;;;14.80;99.90;;;;;;5100992;27;20583;-87
2022/08/21 03:47:35;;;;;;;8.18;2.70;;;14.80;99.90;;;;;;5111669;28;20226;-87
2022/08/21 03:50:04;;;;;;;3.47;2.38;;;14.80;99.90;;;;;;5115661;28;20196;-87
2022/08/21 03:52:31;;;;;;;3.65;2.33;;;14.80;99.90;;;;;;5104473;28;20265;-87
2022/08/21 03:54:57;;;;;;;3.28;2.40;;;14.80;99.90;;;;;;5113899;28;20224;-87
2022/08/21 03:57:26;;;;;;;2.95;2.53;;;14.80;99.90;;;;;;5115493;27;20208;-87
2022/08/21 03:59:52;;;;;;;3.70;2.45;;;14.80;99.90;;;;;;5115311;28;20264;-86
2022/08/21 04:02:21;;;;;;;3.60;2.88;;;14.70;99.90;;;;;;5108049;28;20292;-87
2022/08/21 04:04:48;;;;;;;3.05;2.30;;;14.70;99.90;;;;;;5109387;27;20204;-86
2022/08/21 04:07:15;;;;;;;3.00;2.67;;;14.70;99.90;;;;;;5113287;28;20203;-87
2022/08/21 04:09:42;;;;;;;2.30;2.17;;;14.70;99.90;;;;;;5112515;28;20200;-87
2022/08/21 04:12:10;;;;;;;3.08;2.28;;;14.70;99.90;;;;;;5111686;28;20562;-87
2022/08/21 04:14:44;;;;;;;2.75;2.17;;;14.70;99.90;;;;;;5114722;28;20531;-87
2022/08/21 04:17:11;;;;;;;2.42;2.15;;;14.70;99.90;;;;;;5112792;28;20191;-87
2022/08/21 04:19:38;;;;;;;4.32;2.33;;;14.70;99.90;;;;;;5110808;28;20625;-87
2022/08/21 04:22:05;;;;;;;4.65;2.28;;;14.70;99.90;;;;;;5113135;28;20207;-87
2022/08/21 04:24:32;;;;;;;2.90;2.03;;;14.70;99.90;;;;;;5111187;28;20233;-87
2022/08/21 04:26:58;;;;;;;2.33;2.10;;;14.70;99.90;;;;;;5112033;28;20210;-87
2022/08/21 04:29:25;;;;;;;3.15;1.85;;;14.70;99.90;;;;;;5112938;28;20196;-87
2022/08/21 04:31:53;;;;;;;2.30;2.10;;;14.70;99.90;;;;;;5114613;28;20754;-87
2022/08/21 04:34:21;;;;;;;4.43;2.15;;;14.70;99.90;;;;;;5114225;28;20708;-87
2022/08/21 04:36:48;;;;;;;2.47;2.10;;;14.70;99.90;;;;;;5114792;28;20202;-87
2022/08/21 04:39:15;;;;;;;3.33;2.20;;;14.60;99.90;;;;;;5114442;28;20198;-87
2022/08/21 04:41:42;;;;;;;4.93;2.20;;;14.60;99.90;;;;;;5114468;28;20734;-87
2022/08/21 04:44:09;;;;;;;3.22;2.28;;;14.60;99.90;;;;;;5110722;28;20314;-87
2022/08/21 04:46:36;;;;;;;6.85;2.35;;;14.60;99.90;;;;;;5100695;28;20200;-87
2022/08/21 04:49:04;;;;;;;5.00;1.90;;;14.60;99.90;;;;;;5111876;28;20597;-87
2022/08/21 04:51:34;;;;;;;3.08;2.30;;;14.60;99.90;;;;;;5111371;28;20691;-87
2022/08/21 04:54:07;;;;;;;2.13;2.03;;;14.60;99.90;;;;;;5114380;28;20200;-87
2022/08/21 04:56:38;;;;;;;2.72;2.25;;;14.60;99.90;;;;;;5110863;28;20203;-87
2022/08/21 04:59:11;;;;;;;2.53;2.22;;;14.60;99.90;;;;;;5113572;28;20678;-87
2022/08/21 05:01:44;;;;;;;2.63;2.35;;;14.60;99.90;;;;;;5112629;28;20236;-87
2022/08/21 05:04:15;;;;;;;3.97;1.98;;;14.60;99.90;;;;;;5114343;28;20216;-87
2022/08/21 05:06:45;;;;;;;4.65;2.25;;;14.60;99.90;;;;;;5114506;28;20206;-87
2022/08/21 05:09:15;;;;;;;2.92;2.38;;;14.70;99.90;;;;;;5112733;28;20214;-87
2022/08/21 05:11:42;;;;;;;2.50;2.30;;;14.70;99.90;;;;;;5113852;28;20196;-87
2022/08/21 05:14:10;;;;;;;2.50;2.08;;;14.80;99.90;;;;;;5110539;28;20200;-87
2022/08/21 05:16:37;;;;;;;2.60;2.25;;;14.80;99.90;;;;;;5110486;28;20192;-87
2022/08/21 05:19:07;;;;;;;3.60;2.15;;;14.90;99.90;;;;;;5113703;28;20245;-87
2022/08/21 05:21:38;;;;;;;3.28;2.15;;;14.90;99.90;;;;;;5110693;28;20379;-87
2022/08/21 05:24:05;;;;;;;2.60;2.05;;;14.90;99.90;;;;;;5112182;28;20200;-87
2022/08/21 05:26:32;;;;;;;2.50;2.30;;;15.00;99.90;;;;;;5112178;28;20230;-87
2022/08/21 05:29:02;;;;;;;2.35;2.03;;;15.10;99.90;;;;;;5106784;28;20199;-87
2022/08/21 05:31:29;;;;;;;2.67;2.28;;;15.20;99.90;;;;;;5104264;28;20206;-87
2022/08/21 05:33:56;;;;;;;3.88;2.42;;;15.20;99.90;;;;;;5114082;28;20203;-87
2022/08/21 05:36:24;;;;;;;2.50;2.30;;;15.30;99.90;;;;;;5112201;28;20268;-87
2022/08/21 05:38:53;;;;;;;2.30;2.10;;;15.30;99.90;;;;;;5105954;28;20203;-87
2022/08/21 05:41:20;;;;;;;2.33;2.13;;;15.40;99.90;;;;;;5113667;28;20204;-87
2022/08/21 05:43:49;;;;;;;2.20;2.00;;;15.50;99.90;;;;;;5109524;28;20223;-87
2022/08/21 05:46:16;;;;;;;2.42;2.03;;;15.60;99.90;;;;;;5106305;28;20682;-87
2022/08/21 05:48:43;;;;;;;2.08;1.92;;;15.60;99.90;;;;;;5103732;28;20207;-87
2022/08/21 05:51:12;;;;;;;3.47;2.22;;;15.70;99.90;;;;;;5109357;28;20196;-87
2022/08/21 05:53:39;;;;;;;2.42;1.92;;;15.70;99.90;;;;;;5113413;28;20687;-87
2022/08/21 05:56:08;;;;;;;2.42;1.90;;;15.70;99.90;;;;;;5109544;28;20220;-87
2022/08/21 05:58:35;;;;;;;1.85;1.75;;;15.80;99.90;;;;;;5103281;28;20235;-87
2022/08/21 06:01:03;;;;;;;3.83;1.98;;;15.80;99.90;;;;;;5113800;28;20231;-87
2022/08/21 06:03:33;;;;;;;2.45;2.05;;;15.90;99.90;;;;;;5113487;28;20199;-87
2022/08/21 06:06:00;;;;;;;2.65;2.00;;;15.90;99.90;;;;;;5109961;28;20291;-87
2022/08/21 06:08:28;;;;;;;4.75;2.22;;;15.90;99.90;;;;;;5112575;28;20199;-87
2022/08/21 06:10:58;;;;;;;2.55;1.92;;;16.00;99.90;;;;;;5110989;28;20199;-87
2022/08/21 06:13:27;;;;;;;3.25;1.90;;;16.00;99.90;;;;;;5110268;28;20204;-87
2022/08/21 06:16:03;;;;;;;2.38;2.17;;;16.00;99.90;;;;;;5108477;28;20235;-87
2022/08/21 06:18:30;;;;;;;3.70;2.10;;;16.00;99.90;;;;;;5109372;28;20206;-87
2022/08/21 06:20:57;;;;;;;2.40;2.20;;;16.10;99.90;;;;;;5107537;28;20208;-87
2022/08/21 06:23:25;;;;;;;3.53;2.47;;;16.20;99.90;;;;;;5114193;28;20200;-86
2022/08/21 06:25:51;;;;;;;3.47;1.88;;;16.30;99.90;;;;;;5113041;28;20642;-87
2022/08/21 06:28:18;;;;;;;3.15;1.80;;;16.30;99.90;;;;;;5114799;28;20291;-87
2022/08/21 06:30:50;;;;;;;3.13;2.20;;;16.40;99.90;;;;;;5112350;28;20219;-86
2022/08/21 06:33:17;;;;;;;2.35;1.95;;;16.50;99.90;;;;;;5115262;28;20253;-86
2022/08/21 06:35:49;;;;;;;2.92;2.28;;;16.60;99.90;;;;;;5111819;28;20299;-87
2022/08/21 06:38:16;;;;;;;2.40;2.17;;;16.60;99.90;;;;;;5110754;28;20239;-87
2022/08/21 06:40:43;;;;;;;2.90;2.05;;;16.70;99.90;;;;;;5108647;28;20210;-87
2022/08/21 06:43:13;;;;;;;3.45;2.08;;;16.70;99.90;;;;;;5108729;28;20657;-87
2022/08/21 06:45:40;;;;;;;2.50;2.30;;;16.80;99.90;;;;;;5104026;28;20200;-87
2022/08/21 06:48:08;;;;;;;2.75;2.15;;;16.90;99.90;;;;;;5108695;28;20210;-87
2022/08/21 06:50:36;;;;;;;2.42;2.08;;;17.00;99.90;;;;;;5112176;28;20592;-87
2022/08/21 06:53:06;;;;;;;2.20;2.00;;;17.10;99.90;;;;;;5107420;28;20696;-87
2022/08/21 06:55:34;;;;;;;4.88;2.53;;;17.10;99.90;;;;;;5110667;28;20703;-87
2022/08/21 06:58:01;;;;;;;3.08;2.15;;;17.20;99.90;;;;;;5113264;28;20651;-87
2022/08/21 07:00:28;;;;;;;3.88;2.30;;;17.30;99.90;;;;;;5111108;28;20192;-87
2022/08/21 07:02:55;;;;;;;3.20;2.30;;;17.30;99.90;;;;;;5111198;28;20650;-87
2022/08/21 07:05:25;;;;;;;2.53;2.33;;;17.50;99.60;;;;;;5110833;28;20204;-87
2022/08/21 07:07:52;;;;;;;3.05;2.25;;;17.50;99.60;;;;;;5112373;28;20651;-87
2022/08/21 07:10:21;;;;;;;5.30;2.15;;;17.50;99.50;;;;;;5110846;28;20290;-87
2022/08/21 07:12:48;;;;;;;3.80;2.10;;;17.60;99.00;;;;;;5112434;28;20206;-87
2022/08/21 07:15:15;;;;;;;5.10;2.30;;;17.70;98.60;;;;;;5110954;28;20310;-87
2022/08/21 07:17:42;;;;;;;2.50;2.30;;;17.70;98.80;;;;;;5109291;28;20196;-87
2022/08/21 07:20:09;;;;;;;2.83;2.20;;;17.80;98.50;;;;;;5110892;28;20256;-87
2022/08/21 07:22:39;;;;;;;3.15;2.15;;;17.90;97.50;;;;;;5109294;28;20207;-87
2022/08/21 07:25:07;;;;;;;4.82;2.40;;;18.00;97.60;;;;;;5115937;28;20208;-87
2022/08/21 07:27:34;;;;;;;3.75;2.63;;;18.00;96.20;;;;;;5116314;28;20196;-87
2022/08/21 07:30:00;;;;;;;2.65;2.25;;;18.10;96.90;;;;;;5114354;28;20266;-87
2022/08/21 07:32:27;;;;;;;3.75;2.30;;;18.20;95.40;;;;;;5109288;28;20206;-87
2022/08/21 07:34:54;;;;;;;3.70;2.67;;;18.20;95.50;;;;;;5116134;28;20618;-87
2022/08/21 07:37:21;;;;;;;4.25;2.50;;;18.30;96.30;;;;;;5116495;28;20561;-87
2022/08/21 07:39:50;;;;;;;2.88;2.30;;;18.40;95.20;;;;;;5112196;28;20291;-87
2022/08/21 07:42:17;;;;;;;6.57;2.40;;;18.50;94.90;;;;;;5107864;28;20212;-87
2022/08/21 07:44:44;;;;;;;2.55;2.35;;;18.60;94.90;;;;;;5111913;28;20235;-87
2022/08/21 07:47:11;;;;;;;5.97;2.70;;;18.60;95.30;;;;;;5116297;28;20203;-87
2022/08/21 07:49:38;;;;;;;3.00;2.70;;;18.70;95.00;;;;;;5114776;28;20204;-87
2022/08/21 07:52:07;;;;;;;5.00;3.05;;;18.80;95.20;;;;;;5116367;28;20204;-86
2022/08/21 07:54:33;;;;;;;3.47;2.80;;;18.90;93.00;;;;;;5117521;28;20209;-86
2022/08/21 07:57:02;;;;;;;4.25;2.83;;;19.00;93.10;;;;;;5117007;28;20626;-86
2022/08/21 07:59:29;;;;;;;4.68;2.60;;;19.00;93.00;;;;;;5103433;28;20677;-86
2022/08/21 08:01:56;;;;;;;4.45;3.13;;;19.10;93.50;;;;;;5110574;28;20200;-87
2022/08/21 08:04:23;;;;;;;4.65;2.67;;;19.20;92.90;;;;;;5097586;28;20614;-86
2022/08/21 08:06:51;;;;;;;4.38;2.97;;;19.30;92.80;;;;;;5115683;28;20570;-86
2022/08/21 08:09:17;;;;;;;3.42;2.63;;;19.30;91.70;;;;;;5116475;28;20204;-86
2022/08/21 08:11:44;;;;;;;4.55;3.20;;;19.30;91.80;;;;;;5114608;28;20550;-86
2022/08/21 08:14:15;;;;;;;3.33;2.60;;;19.40;91.00;;;;;;5114600;28;20204;-86
2022/08/21 08:16:42;;;;;;;3.70;2.70;;;19.40;91.30;;;;;;5115999;28;20220;-86
2022/08/21 08:19:13;;;;;;;4.80;3.10;;;19.50;91.00;;;;;;5115898;28;20457;-87
2022/08/21 08:21:39;;;;;;;3.78;3.10;;;19.60;89.00;;;;;;5114003;28;20200;-87
2022/08/21 08:24:07;;;;;;;8.10;2.95;;;19.70;86.00;;;;;;5114955;28;20200;-86
2022/08/21 08:26:34;;;;;;;3.05;2.75;;;19.80;86.30;;;;;;5113793;28;20207;-86
2022/08/21 08:29:01;;;;;;;4.35;3.15;;;19.90;86.00;;;;;;5111272;28;20192;-87
2022/08/21 08:31:29;;;;;;;3.10;2.90;;;19.90;82.80;;;;;;5114929;28;20196;-87
2022/08/21 08:33:56;;;;;;;4.43;3.22;;;20.10;80.90;;;;;;5113666;28;20199;-86
2022/08/21 08:36:33;;;;;;;3.45;3.15;;;20.10;82.90;;;;;;5114597;28;20333;-87
2022/08/21 08:39:01;;;;;;;3.28;3.00;;;20.30;82.70;;;;;;5112952;28;20192;-86
2022/08/21 08:41:30;;;;;;;5.65;3.28;;;20.40;81.10;;;;;;5103351;28;20192;-86
2022/08/21 08:44:04;;;;;;;4.45;3.20;;;20.50;82.10;;;;;;5113121;28;20231;-87
2022/08/21 08:46:36;;;;;;;3.20;2.90;;;20.60;83.60;;;;;;5099958;28;20188;-86
2022/08/21 08:49:10;;;;;;;6.38;3.67;;;20.70;81.30;;;;;;5102456;28;20200;-87
2022/08/21 08:51:44;;;;;;;3.85;3.25;;;20.80;78.90;;;;;;5108416;28;20206;-87
2022/08/21 08:54:16;;;;;;;4.78;3.55;;;20.90;79.10;;;;;;5120170;28;20200;-84
2022/08/21 08:56:52;;;;;;;4.90;3.65;;;21.00;77.20;;;;;;5114901;28;20682;-84
2022/08/21 08:59:30;;;;;;;3.78;3.33;;;21.20;75.30;;;;;;5114693;28;20282;-83
2022/08/21 09:01:58;;;;;;;4.75;3.67;;;21.40;72.70;;;;;;5118670;28;20686;-83
2022/08/21 09:04:28;;;;;;;4.47;3.65;;;21.50;71.70;;;;;;5117162;28;20203;-83
2022/08/21 09:07:14;;;;;;;3.10;2.80;;;21.70;66.90;;;;;;5114533;28;20211;-84
2022/08/21 09:10:00;;;;;;;3.38;3.08;;;21.80;62.00;;;;;;5111797;28;20200;-84
2022/08/21 09:12:37;;;;;;;3.95;3.17;;;22.40;62.10;;;;;;5110473;28;20200;-82
2022/08/21 09:15:12;;;;;;;2.50;2.28;;;23.80;53.10;;;;;;5118587;28;20929;-82
2022/08/21 09:18:02;;;;;;;3.10;2.25;;;25.40;43.10;;;;;;5110237;28;20226;-84
2022/08/21 09:20:35;;;;;;;3.65;2.92;;;26.80;33.80;;;;;;5109101;28;20196;-85
2022/08/21 09:23:25;;;;;;;3.15;2.80;;;28.20;26.50;;;;;;5109851;28;20204;-85
2022/08/21 09:26:02;;;;;;;4.68;3.05;;;28.80;24.20;;;;;;5111442;28;20203;-85
2022/08/21 09:28:33;;;;;;;3.80;3.50;;;29.30;21.20;;;;;;5112235;28;20195;-86
2022/08/21 09:31:02;;;;;;;2.95;2.75;;;29.20;19.10;;;;;;5107674;28;20203;-86
2022/08/21 09:33:30;;;;;;;4.15;2.80;;;30.20;18.40;;;;;;5113562;28;20203;-86
2022/08/21 09:35:58;;;;;;;3.60;3.30;;;31.00;17.10;;;;;;5113974;28;20229;-86
2022/08/21 09:38:28;;;;;;;3.83;3.53;;;31.70;17.50;;;;;;5107413;28;20538;-86
2022/08/21 09:40:59;;;;;;;4.05;3.70;;;32.50;14.80;;;;;;5113549;28;20253;-86
2022/08/21 09:43:27;;;;;;;3.53;3.25;;;32.80;13.80;;;;;;5116135;27;20213;-83
2022/08/21 09:46:06;;;;;;;5.38;3.78;;;32.90;13.30;;;;;;5120973;28;20508;-83
2022/08/21 09:48:43;;;;;;;4.00;3.60;;;32.70;12.20;;;;;;5100520;28;20669;-83
2022/08/21 09:51:11;;;;;;;4.55;3.33;;;30.20;15.40;;;;;;5096098;28;20200;-83
2022/08/21 09:53:45;;;;;;;4.35;3.05;;;29.00;19.40;;;;;;5095550;28;20215;-85
2022/08/21 09:59:21;;;;;;;2.92;2.72;;;27.60;23.20;;;;;;5111228;28;20206;-85
2022/08/21 10:01:51;;;;;;;3.28;2.97;;;26.50;23.40;;;;;;5111214;28;20211;-85
2022/08/21 10:04:24;;;;;;;3.15;2.95;;;26.50;23.80;;;;;;5111346;28;20673;-85
2022/08/21 10:06:51;;;;;;;2.92;2.72;;;26.60;28.00;;;;;;5112968;28;20268;-85
2022/08/21 10:09:20;;;;;;;3.47;2.90;;;27.20;26.50;;;;;;5111259;28;20206;-85
2022/08/21 10:11:56;;;;;;;3.17;2.88;;;28.20;22.50;;;;;;5111245;28;20282;-86
2022/08/21 10:14:41;;;;;;;3.13;2.92;;;28.70;22.90;;;;;;5113097;28;20198;-85
2022/08/21 10:17:18;;;;;;;4.05;2.95;;;29.20;21.90;;;;;;5108346;28;20219;-86
2022/08/21 10:19:56;;;;;;;4.13;2.97;;;29.10;19.60;;;;;;5113219;28;20203;-85
2022/08/21 10:22:33;;;;;;;6.15;2.65;;;28.60;19.90;;;;;;5111165;28;20199;-84
2022/08/21 10:25:09;;;;;;;2.97;2.70;;;27.80;22.60;;;;;;5106941;28;20199;-84
2022/08/21 10:27:45;;;;;;;2.97;2.70;;;26.70;25.20;;;;;;5113021;28;20206;-83
2022/08/21 10:30:14;;;;;;;4.03;3.30;;;25.90;27.60;;;;;;5109539;28;20205;-84
2022/08/21 10:32:58;;;;;;;3.17;2.88;;;25.50;30.20;;;;;;5106847;28;20211;-84
2022/08/21 10:35:31;;;;;;;4.07;3.33;;;25.10;36.30;;;;;;5101568;28;20646;-84
2022/08/21 10:38:33;;;;;;;3.65;2.63;;;25.10;35.30;;;;;;5104323;28;20331;-84
2022/08/21 10:41:10;;;;;;;2.60;2.40;;;25.90;30.40;;;;;;5102680;28;20195;-85
2022/08/21 10:43:55;;;;;;;3.33;2.72;;;26.40;29.90;;;;;;5109707;28;20292;-82
2022/08/21 10:46:43;;;;;;;3.75;2.60;;;26.00;28.10;;;;;;5115815;28;20196;-82
2022/08/21 10:49:21;;;;;;;4.05;2.70;;;25.60;29.90;;;;;;5111900;28;20211;-82
2022/08/21 10:52:02;;;;;;;3.75;3.10;;;24.90;35.10;;;;;;5104095;28;20577;-82
2022/08/21 10:54:40;;;;;;;3.65;3.13;;;24.10;38.20;;;;;;5116999;28;20210;-82
2022/08/21 10:57:13;;;;;;;3.30;2.70;;;23.50;43.20;;;;;;5099321;28;20223;-82
2022/08/21 10:59:48;;;;;;;3.22;2.92;;;23.40;45.90;;;;;;5105877;28;20204;-81
2022/08/21 11:02:21;;;;;;;3.03;2.78;;;23.30;47.80;;;;;;5116150;27;20210;-82
2022/08/21 11:04:55;;;;;;;4.35;2.90;;;23.60;47.70;;;;;;5107275;28;20214;-82
2022/08/21 11:07:29;;;;;;;2.60;2.40;;;24.80;45.00;;;;;;5111558;28;20213;-82
2022/08/21 11:10:01;;;;;;;4.40;2.80;;;25.50;36.20;;;;;;5120571;28;20207;-82
2022/08/21 11:12:38;;;;;;;4.90;2.95;;;25.30;35.40;;;;;;5122316;28;20238;-82
2022/08/21 11:15:18;;;;;;;3.20;2.90;;;25.00;36.20;;;;;;5122420;28;20258;-82
2022/08/21 11:17:55;;;;;;;2.95;2.75;;;24.50;38.60;;;;;;5113951;28;20211;-82
2022/08/21 11:20:29;;;;;;;3.17;2.88;;;24.30;38.30;;;;;;5110298;28;20229;-82
2022/08/21 11:23:04;;;;;;;2.50;2.30;;;24.20;47.60;;;;;;5112451;28;20199;-82
2022/08/21 11:25:35;;;;;;;4.70;2.95;;;24.00;42.20;;;;;;5115601;28;20646;-79
2022/08/21 11:28:07;;;;;;;2.60;2.40;;;23.90;36.50;;;;;;5116885;28;20192;-80
2022/08/21 11:30:48;;;;;;;3.08;2.75;;;24.20;35.60;;;;;;5115799;28;20638;-80
2022/08/21 11:33:30;;;;;;;3.30;2.50;;;24.30;35.70;;;;;;5113228;28;20646;-80
2022/08/21 11:36:03;;;;;;;3.38;2.22;;;24.40;35.80;;;;;;5116360;28;20196;-80
2022/08/21 11:38:40;;;;;;;4.28;2.60;;;24.40;35.80;;;;;;5117284;28;20690;-80
2022/08/21 11:41:23;;;;;;;2.90;2.70;;;24.30;38.70;;;;;;5115495;28;20199;-80
2022/08/21 11:43:58;;;;;;;3.03;2.70;;;24.10;35.50;;;;;;5118272;28;20223;-80
2022/08/21 11:46:32;;;;;;;3.85;2.78;;;24.00;40.80;;;;;;5115542;28;20222;-80
2022/08/21 11:49:14;;;;;;;2.80;2.60;;;24.30;37.10;;;;;;5117291;28;20208;-80
2022/08/21 11:51:47;;;;;;;3.35;2.92;;;24.50;39.20;;;;;;5114008;28;20203;-80
2022/08/21 11:54:27;;;;;;;5.82;2.83;;;24.70;36.00;;;;;;5116862;28;20519;-80
2022/08/21 11:57:00;;;;;;;3.65;3.10;;;24.90;38.50;;;;;;5113874;28;20226;-80
2022/08/21 11:59:37;;;;;;;3.35;3.05;;;24.70;38.60;;;;;;5117696;28;20200;-80
2022/08/21 12:02:13;;;;;;;2.65;2.45;;;24.50;42.80;;;;;;5119291;28;20626;-80
2022/08/21 12:04:46;;;;;;;4.05;2.40;;;24.70;35.40;;;;;;5121480;28;20199;-80
2022/08/21 12:07:16;;;;;;;3.35;2.80;;;24.80;33.10;;;;;;5118803;28;20215;-80
2022/08/21 12:09:54;;;;;;;2.83;2.33;;;25.00;31.10;;;;;;5119730;27;20203;-82
2022/08/21 12:12:26;;;;;;;2.83;2.63;;;24.70;28.90;;;;;;5121372;27;20192;-82
2022/08/21 12:15:08;;;;;;;6.55;5.93;;;24.70;29.20;;;;;;5121131;28;20986;-82
2022/08/21 12:17:39;;;;;;;7.40;3.40;;;24.60;29.00;;;;;;5120378;28;20210;-82
2022/08/21 12:20:17;;;;;;;2.70;2.50;;;24.60;28.30;;;;;;5117668;28;20259;-82
2022/08/21 12:22:52;;;;;;;4.72;2.55;;;24.50;30.60;;;;;;5121001;28;20554;-82
2022/08/21 12:25:41;;;;;;;2.80;2.60;;;24.40;28.00;;;;;;5120643;28;20206;-82
2022/08/21 12:28:10;;;;;;;5.57;3.80;;;24.10;28.80;;;;;;5114577;28;20200;-82
2022/08/21 12:30:45;;;;;;;2.90;2.55;;;24.00;27.90;;;;;;5121084;28;20203;-82
2022/08/21 12:33:26;;;;;;;2.58;2.38;;;23.70;27.10;;;;;;5120806;28;20196;-82
2022/08/21 12:36:04;;;;;;;3.15;2.60;;;23.60;28.30;;;;;;5120743;28;20196;-82
2022/08/21 12:38:40;;;;;;;4.78;2.50;;;23.60;27.40;;;;;;5119810;28;20215;-82
2022/08/21 12:41:16;;;;;;;3.03;2.67;;;23.90;24.10;;;;;;5120835;28;20192;-82
2022/08/21 12:43:46;;;;;;;2.95;2.50;;;24.30;20.60;;;;;;5116342;28;20216;-82
2022/08/21 12:46:18;;;;;;;4.50;2.50;;;24.80;21.00;;;;;;5104777;28;20226;-82
2022/08/21 12:48:50;;;;;;;2.60;2.30;;;25.20;19.90;;;;;;5116462;28;20227;-80
2022/08/21 12:51:25;;;;;;;15.10;13.50;;;25.60;20.80;;;;;;5118651;28;20198;-83
2022/08/21 12:53:54;;;;;;;3.00;2.70;;;26.10;20.00;;;;;;5113698;28;20199;-82
2022/08/21 12:56:25;;;;;;;2.50;2.30;;;26.00;17.50;;;;;;5119462;28;20200;-82
2022/08/21 12:58:59;;;;;;;3.10;2.47;;;25.90;18.60;;;;;;5118848;28;20315;-80
2022/08/21 13:01:44;;;;;;;2.83;2.50;;;25.70;18.00;;;;;;5116085;28;20282;-83
2022/08/21 13:04:16;;;;;;;2.83;2.60;;;26.00;19.80;;;;;;5120042;27;20202;-82
2022/08/21 13:06:47;;;;;;;2.92;2.47;;;26.30;17.60;;;;;;5118846;27;20211;-82